Terminal Aerodrome Forecast
Issued by NWS

Home | Current Version | Previous Version | Text Only | Print | Product List | Glossary On
Versions: 1 2 3 4 5 6 7 8 9 10 11 12 13 14 15 16 17 18 19 20 21 22 23 24 25
368
FTUS42 KCAE 260859 AAA
TAFOGB
TAF AMD
KOGB 260859Z 2609/2706 00000KT 6SM BR SCT006
      TEMPO 2609/2612 4SM BR
     FM261300 VRB03KT P6SM SCT250
     FM261700 10006KT P6SM SCT050 SCT250
     FM270100 VRB03KT P6SM FEW050 SCT250=

USA.gov is the U.S. government's official web portal to all federal, state and local government web resources and services.